createdAt,value
2023-01-18T00:00:34.122Z,22.67
2023-01-18T00:03:02.093Z,22.67
2023-01-18T00:05:30.012Z,24.67
2023-01-18T00:07:58.002Z,23.07
2023-01-18T00:10:27.347Z,23.23
2023-01-18T00:12:55.561Z,20.67
2023-01-18T00:15:23.759Z,19.33
2023-01-18T00:17:52.576Z,20.20
2023-01-18T00:20:22.981Z,18.83
2023-01-18T00:22:51.554Z,20.27
2023-01-18T00:25:20.453Z,22.00
2023-01-18T00:27:51.417Z,20.53
2023-01-18T00:30:21.697Z,17.87
2023-01-18T00:32:50.181Z,18.03
2023-01-18T00:35:22.203Z,18.93
2023-01-18T00:37:51.622Z,19.27
2023-01-18T00:40:20.323Z,24.93
2023-01-18T00:43:07.044Z,21.13
2023-01-18T00:45:35.095Z,24.57
2023-01-18T00:48:03.435Z,44.60
2023-01-18T00:50:31.646Z,43.67
2023-01-18T00:53:00.455Z,45.03
2023-01-18T00:55:28.834Z,38.03
2023-01-18T00:57:58.154Z,30.60
2023-01-18T01:00:27.066Z,27.57
2023-01-18T01:02:55.474Z,23.47
2023-01-18T01:05:43.890Z,19.63
2023-01-18T01:08:17.429Z,19.30
2023-01-18T01:10:46.512Z,19.77
2023-01-18T01:13:35.427Z,16.33
2023-01-18T01:16:24.194Z,18.93
2023-01-18T01:19:10.047Z,16.67
2023-01-18T01:21:55.659Z,13.37
2023-01-18T01:24:41.088Z,12.83
2023-01-18T01:27:10.622Z,12.07
2023-01-18T01:29:40.435Z,11.43
2023-01-18T01:32:08.470Z,10.20
2023-01-18T01:34:36.978Z,9.77
2023-01-18T01:37:05.512Z,13.57
2023-01-18T01:39:33.443Z,12.60
2023-01-18T01:42:01.376Z,11.83
2023-01-18T01:44:51.351Z,13.53
2023-01-18T01:47:37.733Z,11.17
2023-01-18T01:50:18.482Z,10.63
2023-01-18T01:52:47.923Z,9.90
2023-01-18T01:55:22.967Z,9.93
2023-01-18T01:57:56.460Z,9.80
2023-01-18T02:00:26.228Z,9.30
2023-01-18T02:02:58.002Z,10.10
2023-01-18T02:05:26.776Z,10.33
2023-01-18T02:07:55.316Z,9.93
2023-01-18T02:10:23.291Z,9.80
2023-01-18T02:12:54.691Z,11.40
2023-01-18T02:15:28.518Z,10.87
2023-01-18T02:18:15.169Z,10.60
2023-01-18T02:21:11.487Z,13.83
2023-01-18T02:24:11.764Z,12.93
2023-01-18T02:27:00.170Z,12.10
2023-01-18T02:29:59.458Z,13.63
2023-01-18T02:32:53.835Z,13.83
2023-01-18T02:35:29.746Z,13.53
2023-01-18T02:38:06.569Z,14.57
2023-01-18T02:40:47.350Z,14.53
2023-01-18T02:43:34.534Z,13.27
2023-01-18T02:46:23.478Z,13.93
2023-01-18T02:48:52.439Z,13.70
2023-01-18T02:51:20.359Z,14.77
2023-01-18T02:53:48.966Z,13.20
2023-01-18T02:56:22.598Z,12.97
2023-01-18T02:58:54.771Z,13.30
2023-01-18T03:01:29.092Z,12.97
2023-01-18T03:04:00.283Z,12.13
2023-01-18T03:06:30.692Z,14.13
2023-01-18T03:09:00.919Z,13.00
2023-01-18T03:11:37.616Z,13.00
2023-01-18T03:14:15.385Z,13.47
2023-01-18T03:16:58.938Z,12.83
2023-01-18T03:19:55.879Z,14.23
2023-01-18T03:22:46.591Z,14.70
2023-01-18T03:25:17.080Z,14.57
2023-01-18T03:28:05.878Z,13.43
2023-01-18T03:30:53.108Z,12.33
2023-01-18T03:33:45.063Z,13.57
2023-01-18T03:36:18.836Z,13.27
2023-01-18T03:38:49.633Z,14.77
2023-01-18T03:41:19.633Z,13.20
2023-01-18T03:43:51.080Z,12.83
2023-01-18T03:46:20.368Z,14.77
2023-01-18T03:48:49.767Z,13.83
2023-01-18T03:51:24.722Z,14.80
2023-01-18T03:54:01.385Z,13.73
2023-01-18T03:56:34.141Z,14.37
2023-01-18T03:59:05.691Z,13.20
2023-01-18T04:01:33.822Z,13.73
2023-01-18T04:04:03.577Z,13.17
2023-01-18T04:06:33.253Z,13.90
2023-01-18T04:09:01.191Z,13.33
2023-01-18T04:11:29.141Z,13.37
2023-01-18T04:13:57.130Z,14.13
2023-01-18T04:16:25.280Z,14.27
2023-01-18T04:18:53.461Z,14.57
2023-01-18T04:21:22.854Z,13.00
2023-01-18T04:23:50.869Z,13.27
2023-01-18T04:26:19.363Z,14.80
2023-01-18T04:28:47.315Z,13.60
2023-01-18T04:31:15.412Z,13.77
2023-01-18T04:33:43.368Z,12.67
2023-01-18T04:36:11.388Z,12.80
2023-01-18T04:38:40.740Z,12.97
2023-01-18T04:41:08.913Z,12.40
2023-01-18T04:43:36.805Z,13.27
2023-01-18T04:46:05.140Z,14.30
2023-01-18T04:48:33.080Z,12.90
2023-01-18T04:51:01.006Z,12.20
2023-01-18T04:53:29.020Z,11.40
2023-01-18T04:55:58.856Z,12.67
2023-01-18T04:58:26.784Z,12.10
2023-01-18T05:00:54.784Z,12.87
2023-01-18T05:03:22.734Z,13.20
2023-01-18T05:05:50.682Z,13.40
2023-01-18T05:08:18.818Z,14.40
2023-01-18T05:10:46.963Z,13.13
2023-01-18T05:13:16.244Z,12.70
2023-01-18T05:15:44.181Z,13.90
2023-01-18T05:18:12.389Z,14.57
2023-01-18T05:20:40.338Z,15.70
2023-01-18T05:23:11.059Z,13.27
2023-01-18T05:25:40.238Z,13.20
2023-01-18T05:28:09.164Z,14.43
2023-01-18T05:30:42.311Z,12.70
2023-01-18T05:33:10.825Z,12.70
2023-01-18T05:35:38.764Z,13.63
2023-01-18T05:38:06.690Z,14.07
2023-01-18T05:40:34.630Z,13.73
2023-01-18T05:43:02.594Z,13.33
2023-01-18T05:45:30.564Z,14.87
2023-01-18T05:48:00.000Z,13.70
2023-01-18T05:50:28.075Z,14.03
2023-01-18T05:52:57.990Z,12.97
2023-01-18T05:55:26.170Z,14.00
2023-01-18T05:57:54.201Z,14.17
2023-01-18T06:00:22.899Z,13.03
2023-01-18T06:02:50.827Z,14.77
2023-01-18T06:05:20.765Z,14.03
2023-01-18T06:07:49.000Z,13.40
2023-01-18T06:10:17.796Z,14.13
2023-01-18T06:12:46.242Z,18.47
2023-01-18T06:15:15.725Z,21.70
2023-01-18T06:17:45.932Z,16.77
2023-01-18T06:20:14.946Z,15.73
2023-01-18T06:22:45.614Z,15.83
2023-01-18T06:25:13.646Z,14.53
2023-01-18T06:27:42.122Z,14.53
2023-01-18T06:30:11.976Z,13.47
2023-01-18T06:32:39.907Z,14.10
2023-01-18T06:35:08.693Z,14.13
2023-01-18T06:37:36.642Z,13.27
2023-01-18T06:40:07.503Z,12.83
2023-01-18T06:42:35.555Z,15.07
2023-01-18T06:45:03.646Z,14.03
2023-01-18T06:47:31.599Z,15.60
2023-01-18T06:49:59.553Z,20.97
2023-01-18T06:52:27.656Z,18.77
2023-01-18T06:54:55.617Z,16.07
2023-01-18T06:57:24.931Z,16.57
2023-01-18T06:59:53.447Z,17.47
2023-01-18T07:02:21.815Z,17.23
2023-01-18T07:04:49.761Z,15.27
2023-01-18T07:07:17.741Z,16.33
2023-01-18T07:09:45.679Z,15.13
2023-01-18T07:12:13.603Z,15.63
2023-01-18T07:14:43.287Z,15.10
2023-01-18T07:17:11.482Z,14.27
2023-01-18T07:19:39.415Z,15.70
2023-01-18T07:22:07.608Z,16.53
2023-01-18T07:24:35.783Z,16.70
2023-01-18T07:27:03.754Z,19.77
2023-01-18T07:29:31.996Z,19.83
2023-01-18T07:32:02.473Z,19.87
2023-01-18T07:34:30.435Z,19.13
2023-01-18T07:36:58.463Z,18.97
2023-01-18T07:39:26.381Z,18.43
2023-01-18T07:41:54.278Z,19.40
2023-01-18T07:44:22.197Z,17.43
2023-01-18T07:46:50.133Z,18.10
2023-01-18T07:49:19.549Z,18.17
2023-01-18T07:51:47.598Z,19.03
2023-01-18T07:54:17.102Z,19.03
2023-01-18T07:56:45.048Z,18.17
2023-01-18T07:59:12.996Z,18.80
2023-01-18T08:01:41.000Z,20.83
2023-01-18T08:04:09.354Z,19.50
2023-01-18T08:06:38.641Z,23.60
2023-01-18T08:09:06.793Z,21.20
2023-01-18T08:11:34.720Z,19.23
2023-01-18T08:14:02.654Z,20.63
2023-01-18T08:16:30.737Z,19.13
2023-01-18T08:18:58.653Z,20.63
2023-01-18T08:21:26.556Z,21.07
2023-01-18T08:23:56.101Z,22.27
2023-01-18T08:26:24.027Z,23.00
2023-01-18T08:28:51.950Z,25.87
2023-01-18T08:31:21.779Z,26.60
2023-01-18T08:33:51.019Z,29.10
2023-01-18T08:36:22.135Z,23.93
2023-01-18T08:38:51.273Z,18.63
2023-01-18T08:41:21.469Z,21.10
2023-01-18T08:43:50.955Z,20.63
2023-01-18T08:46:19.284Z,27.47
2023-01-18T08:48:50.420Z,24.50
2023-01-18T08:51:19.115Z,22.40
2023-01-18T08:53:48.380Z,21.87
2023-01-18T08:56:16.392Z,19.40
2023-01-18T08:58:46.185Z,18.77
2023-01-18T09:01:14.678Z,19.40
2023-01-18T09:03:43.109Z,17.83
2023-01-18T09:06:13.006Z,19.13
2023-01-18T09:08:41.242Z,17.33
2023-01-18T09:11:11.789Z,17.50
2023-01-18T09:13:58.553Z,17.13
2023-01-18T09:16:29.365Z,16.93
2023-01-18T09:18:58.403Z,16.57
2023-01-18T09:21:28.108Z,16.73
2023-01-18T09:23:56.085Z,17.37
2023-01-18T09:26:24.022Z,17.33
2023-01-18T09:28:54.219Z,18.50
2023-01-18T09:31:24.375Z,18.33
2023-01-18T09:33:54.402Z,18.97
2023-01-18T09:36:26.768Z,16.80
2023-01-18T09:38:55.931Z,18.10
2023-01-18T09:41:32.043Z,18.33
2023-01-18T09:44:03.480Z,21.80
2023-01-18T09:46:37.093Z,21.20
2023-01-18T09:49:16.250Z,23.80
2023-01-18T09:51:53.630Z,20.03
2023-01-18T09:54:33.555Z,18.57
2023-01-18T09:57:08.767Z,18.27
2023-01-18T09:59:43.054Z,16.63
2023-01-18T10:02:18.616Z,17.00
2023-01-18T10:04:53.542Z,15.83
2023-01-18T10:07:23.291Z,15.67
2023-01-18T10:09:55.323Z,16.83
2023-01-18T10:12:31.002Z,14.97
2023-01-18T10:15:03.466Z,15.30
2023-01-18T10:17:36.771Z,16.30
2023-01-18T10:20:14.967Z,18.70
2023-01-18T10:22:50.860Z,18.50
2023-01-18T10:25:31.836Z,15.03
2023-01-18T10:28:26.611Z,17.07
2023-01-18T10:31:03.790Z,13.83
2023-01-18T10:33:37.473Z,17.07
2023-01-18T10:36:12.842Z,17.00
2023-01-18T10:38:41.933Z,18.13
2023-01-18T10:41:19.098Z,17.33
2023-01-18T10:43:47.248Z,13.87
2023-01-18T10:46:17.386Z,13.83
2023-01-18T10:48:47.549Z,13.80
2023-01-18T10:51:30.234Z,14.93
2023-01-18T10:53:58.537Z,12.07
2023-01-18T10:56:28.130Z,12.57
2023-01-18T10:58:58.783Z,11.90
2023-01-18T11:01:28.632Z,12.10
2023-01-18T11:04:05.913Z,12.67
2023-01-18T11:06:46.658Z,11.77
2023-01-18T11:09:41.032Z,11.97
2023-01-18T11:12:37.290Z,11.73
2023-01-18T11:15:25.375Z,9.73
2023-01-18T11:18:12.039Z,10.40
2023-01-18T11:20:46.221Z,11.37
2023-01-18T11:23:25.372Z,12.60
2023-01-18T11:26:00.707Z,10.20
2023-01-18T11:28:34.720Z,10.57
2023-01-18T11:31:09.436Z,12.50
2023-01-18T11:33:43.055Z,17.43
2023-01-18T11:36:11.062Z,12.60
2023-01-18T11:38:41.487Z,9.50
2023-01-18T11:41:16.252Z,10.07
2023-01-18T11:43:56.145Z,9.40
2023-01-18T11:46:44.367Z,12.27
2023-01-18T11:49:27.014Z,12.80
2023-01-18T11:52:02.055Z,11.63
2023-01-18T11:54:37.659Z,10.27
2023-01-18T11:57:10.202Z,12.23
2023-01-18T11:59:41.829Z,14.90
2023-01-18T12:02:37.452Z,12.60
2023-01-18T12:05:22.582Z,14.00
2023-01-18T12:08:01.026Z,12.53
2023-01-18T12:10:42.877Z,11.97
2023-01-18T12:13:29.932Z,12.77
2023-01-18T12:16:08.126Z,9.90
2023-01-18T12:19:01.967Z,11.27
2023-01-18T12:21:41.032Z,10.43
2023-01-18T12:24:34.759Z,11.60
2023-01-18T12:27:13.378Z,11.43
2023-01-18T12:30:01.902Z,10.73
2023-01-18T12:32:50.322Z,10.43
2023-01-18T12:35:30.522Z,10.93
2023-01-18T12:38:05.790Z,10.67
2023-01-18T12:40:45.141Z,12.43
2023-01-18T12:43:31.169Z,11.73
2023-01-18T12:46:06.991Z,11.63
2023-01-18T12:48:42.635Z,13.63
2023-01-18T12:51:15.388Z,13.30
2023-01-18T12:53:46.243Z,12.60
2023-01-18T12:56:18.109Z,14.27
2023-01-18T12:58:52.745Z,13.30
2023-01-18T13:01:22.616Z,11.90
2023-01-18T13:03:54.140Z,11.93
2023-01-18T13:06:22.583Z,11.27
2023-01-18T13:08:59.607Z,14.57
2023-01-18T13:11:31.497Z,15.97
2023-01-18T13:14:11.156Z,12.47
2023-01-18T13:16:47.056Z,12.33
2023-01-18T13:19:20.425Z,12.33
2023-01-18T13:22:00.147Z,13.53
2023-01-18T13:24:44.467Z,14.53
2023-01-18T13:27:15.014Z,25.43
2023-01-18T13:29:45.013Z,13.63
2023-01-18T13:32:30.340Z,10.60
2023-01-18T13:35:18.623Z,12.37
2023-01-18T13:37:50.304Z,15.13
2023-01-18T13:40:24.200Z,12.03
2023-01-18T13:42:52.495Z,12.73
2023-01-18T13:45:23.664Z,11.70
2023-01-18T13:48:01.041Z,10.47
2023-01-18T13:50:57.432Z,11.03
2023-01-18T13:53:26.921Z,12.50
2023-01-18T13:56:34.444Z,14.40
2023-01-18T13:59:05.548Z,15.93
2023-01-18T14:01:38.458Z,15.03
2023-01-18T14:04:16.241Z,15.50
2023-01-18T14:06:46.577Z,28.13
2023-01-18T14:09:18.350Z,23.10
2023-01-18T14:11:53.554Z,21.83
2023-01-18T14:14:27.644Z,18.37
2023-01-18T14:17:00.076Z,15.23
2023-01-18T14:19:29.450Z,16.00
2023-01-18T14:22:27.053Z,14.47
2023-01-18T14:25:22.053Z,13.80
2023-01-18T14:27:59.573Z,13.73
2023-01-18T14:30:30.728Z,23.47
2023-01-18T14:33:03.716Z,20.60
2023-01-18T14:35:31.775Z,20.07
2023-01-18T14:38:17.415Z,18.10
2023-01-18T14:40:48.483Z,18.33
2023-01-18T14:43:22.480Z,22.30
2023-01-18T14:45:57.494Z,17.83
2023-01-18T14:48:27.730Z,14.13
2023-01-18T14:50:56.729Z,15.47
2023-01-18T14:53:28.018Z,25.00
2023-01-18T14:56:09.293Z,15.47
2023-01-18T14:58:40.451Z,16.17
2023-01-18T15:01:10.271Z,17.27
2023-01-18T15:03:39.810Z,15.00
2023-01-18T15:06:14.437Z,18.23
2023-01-18T15:08:44.797Z,37.87
2023-01-18T15:11:13.602Z,23.17
2023-01-18T15:13:49.507Z,18.83
2023-01-18T15:16:21.288Z,18.60
2023-01-18T15:18:52.678Z,18.23
2023-01-18T15:21:23.786Z,16.33
2023-01-18T15:23:53.701Z,19.10
2023-01-18T15:26:36.250Z,18.17
2023-01-18T15:29:13.766Z,17.53
2023-01-18T15:31:54.660Z,17.67
2023-01-18T15:34:29.548Z,17.87
2023-01-18T15:36:59.563Z,14.83
2023-01-18T15:39:28.206Z,16.90
2023-01-18T15:41:58.007Z,19.43
2023-01-18T15:44:41.824Z,18.60
2023-01-18T15:47:18.128Z,14.80
2023-01-18T15:49:49.671Z,15.13
2023-01-18T15:52:34.818Z,17.13
2023-01-18T15:55:06.649Z,15.17
2023-01-18T15:57:36.465Z,15.93
2023-01-18T16:00:06.063Z,16.17
2023-01-18T16:02:34.159Z,15.00
2023-01-18T16:05:22.226Z,14.67
2023-01-18T16:07:53.279Z,15.60
2023-01-18T16:10:30.631Z,24.50
2023-01-18T16:13:37.324Z,21.93
2023-01-18T16:16:18.766Z,19.40
2023-01-18T16:18:49.435Z,21.13
2023-01-18T16:21:27.508Z,19.73
2023-01-18T16:23:57.786Z,18.67
2023-01-18T16:26:30.310Z,23.50
2023-01-18T16:29:07.601Z,23.00
2023-01-18T16:31:36.391Z,22.30
2023-01-18T16:34:20.261Z,21.43
2023-01-18T16:36:50.372Z,20.70
2023-01-18T16:39:18.919Z,19.13
2023-01-18T16:41:53.607Z,22.70
2023-01-18T16:44:22.040Z,21.27
2023-01-18T16:46:50.652Z,15.00
2023-01-18T16:49:18.615Z,14.03
2023-01-18T16:51:47.512Z,14.27
2023-01-18T16:54:16.782Z,13.00
2023-01-18T16:56:45.998Z,11.57
2023-01-18T16:59:17.915Z,11.60
2023-01-18T17:01:46.767Z,13.23
2023-01-18T17:04:15.104Z,12.57
2023-01-18T17:06:44.170Z,12.30
2023-01-18T17:09:20.371Z,12.43
2023-01-18T17:11:48.437Z,12.33
2023-01-18T17:14:16.444Z,15.70
2023-01-18T17:16:45.251Z,17.23
2023-01-18T17:19:14.528Z,13.63
2023-01-18T17:21:43.721Z,12.73
2023-01-18T17:24:12.836Z,10.90
2023-01-18T17:26:42.820Z,11.07
2023-01-18T17:29:17.459Z,10.27
2023-01-18T17:31:52.177Z,10.77
2023-01-18T17:34:27.268Z,9.97
2023-01-18T17:36:57.389Z,10.20
2023-01-18T17:39:32.160Z,10.20
2023-01-18T17:42:18.974Z,10.13
2023-01-18T17:45:02.304Z,10.70
2023-01-18T17:47:30.541Z,10.77
2023-01-18T17:49:58.501Z,11.17
2023-01-18T17:52:27.299Z,11.10
2023-01-18T17:54:55.255Z,11.53
2023-01-18T17:57:24.560Z,11.93
2023-01-18T17:59:55.667Z,11.90
2023-01-18T18:02:24.385Z,12.47
2023-01-18T18:04:52.670Z,11.80
2023-01-18T18:07:20.627Z,11.80
2023-01-18T18:09:48.536Z,11.83
2023-01-18T18:12:16.497Z,12.07
2023-01-18T18:14:45.779Z,12.30
2023-01-18T18:17:13.735Z,12.03
2023-01-18T18:19:41.688Z,12.47
2023-01-18T18:22:09.703Z,13.10
2023-01-18T18:24:37.599Z,11.90
2023-01-18T18:27:05.640Z,12.57
2023-01-18T18:29:33.661Z,11.17
2023-01-18T18:32:05.314Z,11.50
2023-01-18T18:34:33.365Z,13.10
2023-01-18T18:37:01.496Z,11.80
2023-01-18T18:39:29.398Z,13.00
2023-01-18T18:41:57.588Z,12.57
2023-01-18T18:44:25.572Z,11.00
2023-01-18T18:46:53.502Z,11.80
2023-01-18T18:49:22.796Z,12.20
2023-01-18T18:51:50.821Z,11.83
2023-01-18T18:54:18.776Z,12.57
2023-01-18T18:56:46.961Z,11.90
2023-01-18T18:59:14.929Z,11.43
2023-01-18T19:01:42.924Z,12.90
2023-01-18T19:04:11.085Z,13.60
2023-01-18T19:06:40.636Z,16.20
2023-01-18T19:09:08.554Z,16.13
2023-01-18T19:11:39.458Z,17.30
2023-01-18T19:14:07.609Z,17.37
2023-01-18T19:16:36.845Z,17.87
2023-01-18T19:19:04.925Z,18.33
2023-01-18T19:21:33.524Z,19.43
2023-01-18T19:24:02.855Z,19.10
2023-01-18T19:26:30.872Z,20.53
2023-01-18T19:28:58.809Z,20.33
2023-01-18T19:31:26.895Z,20.67
2023-01-18T19:33:56.364Z,18.60
2023-01-18T19:36:24.313Z,17.60
2023-01-18T19:38:59.350Z,18.97
2023-01-18T19:41:30.536Z,20.47
2023-01-18T19:43:58.492Z,19.63
2023-01-18T19:46:26.684Z,19.03
2023-01-18T19:48:58.204Z,21.47
2023-01-18T19:51:27.276Z,19.73
2023-01-18T19:53:56.317Z,19.33
2023-01-18T19:56:25.699Z,19.33
2023-01-18T19:58:55.026Z,19.53
2023-01-18T20:01:35.865Z,17.97
2023-01-18T20:04:05.184Z,18.27
2023-01-18T20:06:33.252Z,19.47
2023-01-18T20:09:01.252Z,19.20
2023-01-18T20:11:29.718Z,16.63
2023-01-18T20:13:58.982Z,17.20
2023-01-18T20:16:28.359Z,17.50
2023-01-18T20:18:56.352Z,16.87
2023-01-18T20:21:24.609Z,17.40
2023-01-18T20:23:55.947Z,16.87
2023-01-18T20:26:35.090Z,16.53
2023-01-18T20:29:06.720Z,15.97
2023-01-18T20:31:36.245Z,16.70
2023-01-18T20:34:04.780Z,20.63
2023-01-18T20:36:34.802Z,21.27
2023-01-18T20:39:03.511Z,20.07
2023-01-18T20:41:31.630Z,18.13
2023-01-18T20:43:59.570Z,17.87
2023-01-18T20:46:29.043Z,17.30
2023-01-18T20:48:56.975Z,17.57
2023-01-18T20:51:24.904Z,17.17
2023-01-18T20:53:52.862Z,17.63
2023-01-18T20:56:29.348Z,18.33
2023-01-18T20:58:57.946Z,18.67
2023-01-18T21:01:31.640Z,17.43
2023-01-18T21:04:02.352Z,17.33
2023-01-18T21:06:31.348Z,20.90
2023-01-18T21:09:01.211Z,49.90
2023-01-18T21:11:29.543Z,29.20
2023-01-18T21:14:00.052Z,26.83
2023-01-18T21:16:28.610Z,23.70
2023-01-18T21:18:58.714Z,21.43
2023-01-18T21:21:31.680Z,20.03
2023-01-18T21:24:00.218Z,21.30
2023-01-18T21:26:28.375Z,23.47
2023-01-18T21:28:56.721Z,21.10
2023-01-18T21:31:24.694Z,26.47
2023-01-18T21:33:52.910Z,16.70
2023-01-18T21:36:22.867Z,18.20
2023-01-18T21:38:52.488Z,16.97
2023-01-18T21:41:38.078Z,17.37
2023-01-18T21:44:24.203Z,16.87
2023-01-18T21:46:53.218Z,18.93
2023-01-18T21:50:01.182Z,20.17
2023-01-18T21:52:45.671Z,17.27
2023-01-18T21:55:16.330Z,16.87
2023-01-18T21:57:44.392Z,18.03
2023-01-18T22:00:13.566Z,18.13
2023-01-18T22:02:41.510Z,18.67
2023-01-18T22:05:10.004Z,17.40
2023-01-18T22:07:37.948Z,17.60
2023-01-18T22:10:07.338Z,22.03
2023-01-18T22:12:39.074Z,18.63
2023-01-18T22:15:07.861Z,16.63
2023-01-18T22:17:35.815Z,14.87
2023-01-18T22:20:04.575Z,15.67
2023-01-18T22:22:32.507Z,14.17
2023-01-18T22:25:02.271Z,14.33
2023-01-18T22:27:30.409Z,13.77
2023-01-18T22:30:00.105Z,14.30
2023-01-18T22:32:28.053Z,13.90
2023-01-18T22:34:55.979Z,13.73
2023-01-18T22:37:26.006Z,14.37
2023-01-18T22:39:54.007Z,13.20
2023-01-18T22:42:22.000Z,13.53
2023-01-18T22:44:49.890Z,13.10
2023-01-18T22:47:19.160Z,12.73
2023-01-18T22:49:47.230Z,13.23
2023-01-18T22:52:15.173Z,14.73
2023-01-18T22:54:43.139Z,12.83
2023-01-18T22:57:11.266Z,12.53
2023-01-18T22:59:39.219Z,13.60
2023-01-18T23:02:07.171Z,13.33
2023-01-18T23:04:36.516Z,12.73
2023-01-18T23:07:04.585Z,13.37
2023-01-18T23:09:32.499Z,13.03
2023-01-18T23:12:00.417Z,13.07
2023-01-18T23:14:44.912Z,14.03
2023-01-18T23:17:31.906Z,13.70
2023-01-18T23:20:01.174Z,14.10
2023-01-18T23:22:29.146Z,15.93
2023-01-18T23:24:57.062Z,20.43
2023-01-18T23:27:25.050Z,21.80
2023-01-18T23:29:57.243Z,29.97
2023-01-18T23:32:28.007Z,25.80
2023-01-18T23:34:56.135Z,18.57
2023-01-18T23:37:26.126Z,17.07
2023-01-18T23:40:11.694Z,18.07
2023-01-18T23:42:57.410Z,17.33
2023-01-18T23:45:43.027Z,16.97
2023-01-18T23:48:30.910Z,18.03
2023-01-18T23:51:17.876Z,17.50
2023-01-18T23:54:05.017Z,17.27
2023-01-18T23:56:33.135Z,15.90
2023-01-18T23:59:01.266Z,15.67
